sensor_id;sensor_type;location;lat;lon;timestamp;P1;durP1;ratioP1;P2;durP2;ratioP2
10761;SDS011;5433;50.862;4.320;2023-01-15T00:03:47;9.10;;;1.50;;
10761;SDS011;5433;50.862;4.320;2023-01-15T00:06:14;7.20;;;1.38;;
10761;SDS011;5433;50.862;4.320;2023-01-15T00:08:40;7.00;;;1.48;;
10761;SDS011;5433;50.862;4.320;2023-01-15T00:11:06;9.80;;;1.70;;
10761;SDS011;5433;50.862;4.320;2023-01-15T00:13:32;7.82;;;1.40;;
10761;SDS011;5433;50.862;4.320;2023-01-15T00:16:02;10.95;;;1.75;;
10761;SDS011;5433;50.862;4.320;2023-01-15T00:18:28;9.15;;;1.65;;
10761;SDS011;5433;50.862;4.320;2023-01-15T00:23:40;8.00;;;1.52;;
10761;SDS011;5433;50.862;4.320;2023-01-15T00:26:29;9.00;;;1.88;;
10761;SDS011;5433;50.862;4.320;2023-01-15T00:29:14;6.15;;;1.45;;
10761;SDS011;5433;50.862;4.320;2023-01-15T00:31:40;10.00;;;1.73;;
10761;SDS011;5433;50.862;4.320;2023-01-15T00:34:06;7.03;;;1.80;;
10761;SDS011;5433;50.862;4.320;2023-01-15T00:36:32;6.63;;;1.58;;
10761;SDS011;5433;50.862;4.320;2023-01-15T00:38:59;7.05;;;1.70;;
10761;SDS011;5433;50.862;4.320;2023-01-15T00:41:25;5.43;;;1.45;;
10761;SDS011;5433;50.862;4.320;2023-01-15T00:43:51;7.63;;;1.60;;
10761;SDS011;5433;50.862;4.320;2023-01-15T00:46:17;7.18;;;1.48;;
10761;SDS011;5433;50.862;4.320;2023-01-15T00:48:43;7.72;;;1.85;;
10761;SDS011;5433;50.862;4.320;2023-01-15T00:51:09;10.02;;;1.38;;
10761;SDS011;5433;50.862;4.320;2023-01-15T00:53:35;5.35;;;1.38;;
10761;SDS011;5433;50.862;4.320;2023-01-15T00:56:01;5.38;;;1.40;;
10761;SDS011;5433;50.862;4.320;2023-01-15T00:58:27;9.88;;;1.70;;
10761;SDS011;5433;50.862;4.320;2023-01-15T01:00:56;8.93;;;1.75;;
10761;SDS011;5433;50.862;4.320;2023-01-15T01:03:24;7.00;;;1.60;;
10761;SDS011;5433;50.862;4.320;2023-01-15T01:05:50;9.50;;;1.60;;
10761;SDS011;5433;50.862;4.320;2023-01-15T01:08:16;6.47;;;1.33;;
10761;SDS011;5433;50.862;4.320;2023-01-15T01:10:43;9.65;;;1.60;;
10761;SDS011;5433;50.862;4.320;2023-01-15T01:13:09;7.85;;;1.42;;
10761;SDS011;5433;50.862;4.320;2023-01-15T01:15:35;8.27;;;1.63;;
10761;SDS011;5433;50.862;4.320;2023-01-15T01:18:02;8.50;;;1.70;;
10761;SDS011;5433;50.862;4.320;2023-01-15T01:20:29;7.03;;;1.30;;
10761;SDS011;5433;50.862;4.320;2023-01-15T01:22:55;6.20;;;1.60;;
10761;SDS011;5433;50.862;4.320;2023-01-15T01:25:21;8.75;;;1.48;;
10761;SDS011;5433;50.862;4.320;2023-01-15T01:27:47;7.70;;;1.50;;
10761;SDS011;5433;50.862;4.320;2023-01-15T01:30:13;5.18;;;1.20;;
10761;SDS011;5433;50.862;4.320;2023-01-15T01:32:39;8.27;;;1.38;;
10761;SDS011;5433;50.862;4.320;2023-01-15T01:35:08;7.63;;;1.60;;
10761;SDS011;5433;50.862;4.320;2023-01-15T01:37:34;6.00;;;1.60;;
10761;SDS011;5433;50.862;4.320;2023-01-15T01:40:00;5.88;;;1.58;;
10761;SDS011;5433;50.862;4.320;2023-01-15T01:42:26;5.03;;;1.38;;
10761;SDS011;5433;50.862;4.320;2023-01-15T01:45:11;10.80;;;1.88;;
10761;SDS011;5433;50.862;4.320;2023-01-15T01:47:41;6.60;;;1.58;;
10761;SDS011;5433;50.862;4.320;2023-01-15T01:50:08;9.82;;;1.75;;
10761;SDS011;5433;50.862;4.320;2023-01-15T01:52:44;7.72;;;1.50;;
10761;SDS011;5433;50.862;4.320;2023-01-15T01:55:11;7.03;;;1.65;;
10761;SDS011;5433;50.862;4.320;2023-01-15T01:57:41;7.22;;;1.55;;
10761;SDS011;5433;50.862;4.320;2023-01-15T02:00:07;6.55;;;1.20;;
10761;SDS011;5433;50.862;4.320;2023-01-15T02:02:35;5.63;;;1.50;;
10761;SDS011;5433;50.862;4.320;2023-01-15T02:05:01;6.40;;;1.60;;
10761;SDS011;5433;50.862;4.320;2023-01-15T02:07:28;5.65;;;1.38;;
10761;SDS011;5433;50.862;4.320;2023-01-15T02:09:57;6.97;;;1.60;;
10761;SDS011;5433;50.862;4.320;2023-01-15T02:12:36;6.32;;;1.67;;
10761;SDS011;5433;50.862;4.320;2023-01-15T02:15:17;6.28;;;1.17;;
10761;SDS011;5433;50.862;4.320;2023-01-15T02:17:54;4.82;;;1.20;;
10761;SDS011;5433;50.862;4.320;2023-01-15T02:20:31;5.60;;;1.10;;
10761;SDS011;5433;50.862;4.320;2023-01-15T02:28:17;6.13;;;1.30;;
10761;SDS011;5433;50.862;4.320;2023-01-15T02:30:46;7.15;;;1.55;;
10761;SDS011;5433;50.862;4.320;2023-01-15T02:33:17;7.47;;;1.30;;
10761;SDS011;5433;50.862;4.320;2023-01-15T02:38:14;5.78;;;1.48;;
10761;SDS011;5433;50.862;4.320;2023-01-15T02:40:41;6.10;;;1.35;;
10761;SDS011;5433;50.862;4.320;2023-01-15T02:43:08;4.70;;;1.30;;
10761;SDS011;5433;50.862;4.320;2023-01-15T02:45:35;3.45;;;1.15;;
10761;SDS011;5433;50.862;4.320;2023-01-15T02:48:04;7.28;;;1.67;;
10761;SDS011;5433;50.862;4.320;2023-01-15T02:50:34;7.75;;;1.75;;
10761;SDS011;5433;50.862;4.320;2023-01-15T02:53:02;6.90;;;1.60;;
10761;SDS011;5433;50.862;4.320;2023-01-15T02:55:32;5.15;;;1.35;;
10761;SDS011;5433;50.862;4.320;2023-01-15T02:58:00;7.38;;;1.30;;
10761;SDS011;5433;50.862;4.320;2023-01-15T03:00:30;5.78;;;1.27;;
10761;SDS011;5433;50.862;4.320;2023-01-15T03:03:02;7.35;;;1.42;;
10761;SDS011;5433;50.862;4.320;2023-01-15T03:05:39;5.90;;;1.30;;
10761;SDS011;5433;50.862;4.320;2023-01-15T03:08:08;7.50;;;1.50;;
10761;SDS011;5433;50.862;4.320;2023-01-15T03:10:37;6.45;;;1.27;;
10761;SDS011;5433;50.862;4.320;2023-01-15T03:13:06;7.68;;;1.35;;
10761;SDS011;5433;50.862;4.320;2023-01-15T03:15:38;5.43;;;1.23;;
10761;SDS011;5433;50.862;4.320;2023-01-15T03:18:25;7.72;;;1.40;;
10761;SDS011;5433;50.862;4.320;2023-01-15T03:20:53;3.47;;;1.42;;
10761;SDS011;5433;50.862;4.320;2023-01-15T03:23:22;7.75;;;1.38;;
10761;SDS011;5433;50.862;4.320;2023-01-15T03:25:49;5.38;;;1.10;;
10761;SDS011;5433;50.862;4.320;2023-01-15T03:28:23;6.63;;;1.13;;
10761;SDS011;5433;50.862;4.320;2023-01-15T03:30:50;5.38;;;1.40;;
10761;SDS011;5433;50.862;4.320;2023-01-15T03:33:16;5.15;;;1.15;;
10761;SDS011;5433;50.862;4.320;2023-01-15T03:35:53;4.93;;;1.20;;
10761;SDS011;5433;50.862;4.320;2023-01-15T03:38:24;5.97;;;1.10;;
10761;SDS011;5433;50.862;4.320;2023-01-15T03:43:30;4.30;;;1.10;;
10761;SDS011;5433;50.862;4.320;2023-01-15T03:46:13;5.90;;;1.00;;
10761;SDS011;5433;50.862;4.320;2023-01-15T03:48:43;6.32;;;1.20;;
10761;SDS011;5433;50.862;4.320;2023-01-15T03:51:12;5.30;;;1.15;;
10761;SDS011;5433;50.862;4.320;2023-01-15T03:53:48;6.38;;;1.10;;
10761;SDS011;5433;50.862;4.320;2023-01-15T03:56:18;4.47;;;1.05;;
10761;SDS011;5433;50.862;4.320;2023-01-15T03:58:52;6.43;;;1.38;;
10761;SDS011;5433;50.862;4.320;2023-01-15T04:01:21;6.13;;;1.10;;
10761;SDS011;5433;50.862;4.320;2023-01-15T04:03:49;4.32;;;1.30;;
10761;SDS011;5433;50.862;4.320;2023-01-15T04:06:16;4.78;;;1.20;;
10761;SDS011;5433;50.862;4.320;2023-01-15T04:08:42;5.25;;;1.00;;
10761;SDS011;5433;50.862;4.320;2023-01-15T04:11:10;3.17;;;0.75;;
10761;SDS011;5433;50.862;4.320;2023-01-15T04:13:36;6.82;;;1.30;;
10761;SDS011;5433;50.862;4.320;2023-01-15T04:16:02;6.32;;;1.13;;
10761;SDS011;5433;50.862;4.320;2023-01-15T04:18:28;4.90;;;1.20;;
10761;SDS011;5433;50.862;4.320;2023-01-15T04:20:54;3.58;;;1.02;;
10761;SDS011;5433;50.862;4.320;2023-01-15T04:23:20;3.58;;;1.00;;
10761;SDS011;5433;50.862;4.320;2023-01-15T04:25:46;5.03;;;1.10;;
10761;SDS011;5433;50.862;4.320;2023-01-15T04:28:12;5.13;;;1.02;;
10761;SDS011;5433;50.862;4.320;2023-01-15T04:30:38;5.60;;;1.05;;
10761;SDS011;5433;50.862;4.320;2023-01-15T04:33:07;3.35;;;1.00;;
10761;SDS011;5433;50.862;4.320;2023-01-15T04:35:33;6.90;;;1.33;;
10761;SDS011;5433;50.862;4.320;2023-01-15T04:38:00;3.63;;;1.02;;
10761;SDS011;5433;50.862;4.320;2023-01-15T04:40:26;3.45;;;0.90;;
10761;SDS011;5433;50.862;4.320;2023-01-15T04:43:11;5.65;;;1.13;;
10761;SDS011;5433;50.862;4.320;2023-01-15T04:45:56;2.67;;;1.00;;
10761;SDS011;5433;50.862;4.320;2023-01-15T04:48:23;3.45;;;1.02;;
10761;SDS011;5433;50.862;4.320;2023-01-15T04:50:49;4.75;;;1.40;;
10761;SDS011;5433;50.862;4.320;2023-01-15T04:53:15;5.25;;;1.02;;
10761;SDS011;5433;50.862;4.320;2023-01-15T04:55:41;2.92;;;0.85;;
10761;SDS011;5433;50.862;4.320;2023-01-15T04:58:07;5.20;;;0.90;;
10761;SDS011;5433;50.862;4.320;2023-01-15T05:00:33;4.55;;;1.20;;
10761;SDS011;5433;50.862;4.320;2023-01-15T05:02:59;3.85;;;1.00;;
10761;SDS011;5433;50.862;4.320;2023-01-15T05:05:24;4.32;;;0.93;;
10761;SDS011;5433;50.862;4.320;2023-01-15T05:07:50;4.32;;;0.90;;
10761;SDS011;5433;50.862;4.320;2023-01-15T05:10:16;4.90;;;1.00;;
10761;SDS011;5433;50.862;4.320;2023-01-15T05:12:42;4.03;;;0.93;;
10761;SDS011;5433;50.862;4.320;2023-01-15T05:15:08;4.15;;;1.10;;
10761;SDS011;5433;50.862;4.320;2023-01-15T05:17:34;2.20;;;0.90;;
10761;SDS011;5433;50.862;4.320;2023-01-15T05:20:00;6.40;;;1.20;;
10761;SDS011;5433;50.862;4.320;2023-01-15T05:22:26;3.83;;;0.80;;
10761;SDS011;5433;50.862;4.320;2023-01-15T05:24:52;5.63;;;0.95;;
10761;SDS011;5433;50.862;4.320;2023-01-15T05:27:18;3.47;;;0.73;;
10761;SDS011;5433;50.862;4.320;2023-01-15T05:29:44;4.28;;;1.08;;
10761;SDS011;5433;50.862;4.320;2023-01-15T05:32:11;2.88;;;0.85;;
10761;SDS011;5433;50.862;4.320;2023-01-15T05:34:37;4.28;;;0.80;;
10761;SDS011;5433;50.862;4.320;2023-01-15T05:37:03;3.47;;;1.00;;
10761;SDS011;5433;50.862;4.320;2023-01-15T05:39:29;4.38;;;0.85;;
10761;SDS011;5433;50.862;4.320;2023-01-15T05:41:55;3.58;;;0.85;;
10761;SDS011;5433;50.862;4.320;2023-01-15T05:44:25;4.80;;;1.00;;
10761;SDS011;5433;50.862;4.320;2023-01-15T05:46:53;3.90;;;0.70;;
10761;SDS011;5433;50.862;4.320;2023-01-15T05:49:20;2.90;;;0.80;;
10761;SDS011;5433;50.862;4.320;2023-01-15T05:51:46;2.75;;;0.70;;
10761;SDS011;5433;50.862;4.320;2023-01-15T05:54:14;3.05;;;0.73;;
10761;SDS011;5433;50.862;4.320;2023-01-15T05:56:40;6.03;;;1.13;;
10761;SDS011;5433;50.862;4.320;2023-01-15T05:59:06;3.08;;;0.90;;
10761;SDS011;5433;50.862;4.320;2023-01-15T06:01:33;5.05;;;0.80;;
10761;SDS011;5433;50.862;4.320;2023-01-15T06:03:59;5.93;;;0.80;;
10761;SDS011;5433;50.862;4.320;2023-01-15T06:06:26;3.78;;;0.90;;
10761;SDS011;5433;50.862;4.320;2023-01-15T06:08:52;3.17;;;0.88;;
10761;SDS011;5433;50.862;4.320;2023-01-15T06:11:18;3.95;;;0.88;;
10761;SDS011;5433;50.862;4.320;2023-01-15T06:13:44;6.03;;;1.00;;
10761;SDS011;5433;50.862;4.320;2023-01-15T06:16:10;2.08;;;0.80;;
10761;SDS011;5433;50.862;4.320;2023-01-15T06:18:37;3.40;;;0.93;;
10761;SDS011;5433;50.862;4.320;2023-01-15T06:21:03;2.28;;;0.70;;
10761;SDS011;5433;50.862;4.320;2023-01-15T06:23:30;1.83;;;0.73;;
10761;SDS011;5433;50.862;4.320;2023-01-15T06:25:59;5.13;;;1.00;;
10761;SDS011;5433;50.862;4.320;2023-01-15T06:28:26;3.08;;;0.90;;
10761;SDS011;5433;50.862;4.320;2023-01-15T06:30:52;4.88;;;0.90;;
10761;SDS011;5433;50.862;4.320;2023-01-15T06:33:18;3.42;;;0.90;;
10761;SDS011;5433;50.862;4.320;2023-01-15T06:35:44;2.45;;;0.60;;
10761;SDS011;5433;50.862;4.320;2023-01-15T06:38:10;2.72;;;0.80;;
10761;SDS011;5433;50.862;4.320;2023-01-15T06:40:36;2.70;;;0.77;;
10761;SDS011;5433;50.862;4.320;2023-01-15T06:43:02;3.95;;;0.82;;
10761;SDS011;5433;50.862;4.320;2023-01-15T06:45:46;6.15;;;0.93;;
10761;SDS011;5433;50.862;4.320;2023-01-15T06:48:31;5.30;;;0.80;;
10761;SDS011;5433;50.862;4.320;2023-01-15T06:50:58;3.65;;;0.82;;
10761;SDS011;5433;50.862;4.320;2023-01-15T06:53:24;3.92;;;0.80;;
10761;SDS011;5433;50.862;4.320;2023-01-15T06:55:50;4.82;;;0.93;;
10761;SDS011;5433;50.862;4.320;2023-01-15T06:58:16;4.43;;;1.20;;
10761;SDS011;5433;50.862;4.320;2023-01-15T07:00:42;4.78;;;0.80;;
10761;SDS011;5433;50.862;4.320;2023-01-15T07:03:09;3.80;;;1.05;;
10761;SDS011;5433;50.862;4.320;2023-01-15T07:05:38;5.18;;;1.10;;
10761;SDS011;5433;50.862;4.320;2023-01-15T07:08:04;4.15;;;1.02;;
10761;SDS011;5433;50.862;4.320;2023-01-15T07:10:32;7.47;;;1.30;;
10761;SDS011;5433;50.862;4.320;2023-01-15T07:12:58;7.40;;;1.10;;
10761;SDS011;5433;50.862;4.320;2023-01-15T07:15:24;5.32;;;1.00;;
10761;SDS011;5433;50.862;4.320;2023-01-15T07:17:53;5.22;;;1.05;;
10761;SDS011;5433;50.862;4.320;2023-01-15T07:20:19;8.95;;;1.20;;
10761;SDS011;5433;50.862;4.320;2023-01-15T07:22:47;7.78;;;1.17;;
10761;SDS011;5433;50.862;4.320;2023-01-15T07:25:13;6.18;;;1.20;;
10761;SDS011;5433;50.862;4.320;2023-01-15T07:27:39;9.23;;;1.27;;
10761;SDS011;5433;50.862;4.320;2023-01-15T07:33:09;5.20;;;1.10;;
10761;SDS011;5433;50.862;4.320;2023-01-15T07:35:35;2.97;;;1.20;;
10761;SDS011;5433;50.862;4.320;2023-01-15T07:38:01;5.70;;;1.27;;
10761;SDS011;5433;50.862;4.320;2023-01-15T07:40:27;5.05;;;1.00;;
10761;SDS011;5433;50.862;4.320;2023-01-15T07:42:53;4.07;;;1.10;;
10761;SDS011;5433;50.862;4.320;2023-01-15T07:45:38;6.35;;;1.20;;
10761;SDS011;5433;50.862;4.320;2023-01-15T07:48:24;8.30;;;1.30;;
10761;SDS011;5433;50.862;4.320;2023-01-15T07:51:22;5.70;;;1.20;;
10761;SDS011;5433;50.862;4.320;2023-01-15T07:53:48;5.60;;;1.50;;
10761;SDS011;5433;50.862;4.320;2023-01-15T07:56:14;7.32;;;1.00;;
10761;SDS011;5433;50.862;4.320;2023-01-15T07:58:40;4.95;;;1.15;;
10761;SDS011;5433;50.862;4.320;2023-01-15T08:01:08;6.55;;;1.40;;
10761;SDS011;5433;50.862;4.320;2023-01-15T08:03:34;5.40;;;1.30;;
10761;SDS011;5433;50.862;4.320;2023-01-15T08:06:00;5.70;;;1.38;;
10761;SDS011;5433;50.862;4.320;2023-01-15T08:08:26;10.07;;;1.63;;
10761;SDS011;5433;50.862;4.320;2023-01-15T08:10:52;6.68;;;1.38;;
10761;SDS011;5433;50.862;4.320;2023-01-15T08:13:36;7.18;;;1.73;;
10761;SDS011;5433;50.862;4.320;2023-01-15T08:16:21;8.82;;;1.52;;
10761;SDS011;5433;50.862;4.320;2023-01-15T08:18:47;5.97;;;1.33;;
10761;SDS011;5433;50.862;4.320;2023-01-15T08:21:13;9.10;;;1.55;;
10761;SDS011;5433;50.862;4.320;2023-01-15T08:23:40;6.32;;;1.13;;
10761;SDS011;5433;50.862;4.320;2023-01-15T08:26:07;4.90;;;1.13;;
10761;SDS011;5433;50.862;4.320;2023-01-15T08:28:33;8.73;;;1.33;;
10761;SDS011;5433;50.862;4.320;2023-01-15T08:30:59;7.10;;;1.13;;
10761;SDS011;5433;50.862;4.320;2023-01-15T08:33:25;5.80;;;1.25;;
10761;SDS011;5433;50.862;4.320;2023-01-15T08:35:51;4.45;;;1.20;;
10761;SDS011;5433;50.862;4.320;2023-01-15T08:38:17;6.38;;;1.20;;
10761;SDS011;5433;50.862;4.320;2023-01-15T08:40:43;3.55;;;1.40;;
10761;SDS011;5433;50.862;4.320;2023-01-15T08:43:28;8.55;;;1.17;;
10761;SDS011;5433;50.862;4.320;2023-01-15T08:45:55;5.25;;;1.38;;
10761;SDS011;5433;50.862;4.320;2023-01-15T08:48:22;7.28;;;1.42;;
10761;SDS011;5433;50.862;4.320;2023-01-15T08:50:48;4.15;;;1.20;;
10761;SDS011;5433;50.862;4.320;2023-01-15T08:53:15;5.35;;;1.20;;
10761;SDS011;5433;50.862;4.320;2023-01-15T08:55:41;5.15;;;1.20;;
10761;SDS011;5433;50.862;4.320;2023-01-15T08:58:10;5.28;;;1.30;;
10761;SDS011;5433;50.862;4.320;2023-01-15T09:00:36;8.82;;;1.40;;
10761;SDS011;5433;50.862;4.320;2023-01-15T09:03:04;5.03;;;1.30;;
10761;SDS011;5433;50.862;4.320;2023-01-15T09:05:30;4.97;;;1.10;;
10761;SDS011;5433;50.862;4.320;2023-01-15T09:07:56;7.40;;;1.55;;
10761;SDS011;5433;50.862;4.320;2023-01-15T09:10:22;6.38;;;1.20;;
10761;SDS011;5433;50.862;4.320;2023-01-15T09:12:48;4.03;;;1.10;;
10761;SDS011;5433;50.862;4.320;2023-01-15T09:15:14;4.78;;;1.20;;
10761;SDS011;5433;50.862;4.320;2023-01-15T09:17:41;6.05;;;1.45;;
10761;SDS011;5433;50.862;4.320;2023-01-15T09:20:07;2.90;;;1.20;;
10761;SDS011;5433;50.862;4.320;2023-01-15T09:22:34;6.22;;;1.45;;
10761;SDS011;5433;50.862;4.320;2023-01-15T09:25:00;4.32;;;1.08;;
10761;SDS011;5433;50.862;4.320;2023-01-15T09:27:26;5.53;;;1.17;;
10761;SDS011;5433;50.862;4.320;2023-01-15T09:29:53;4.20;;;1.10;;
10761;SDS011;5433;50.862;4.320;2023-01-15T09:32:19;4.88;;;1.00;;
10761;SDS011;5433;50.862;4.320;2023-01-15T09:34:45;5.55;;;1.10;;
10761;SDS011;5433;50.862;4.320;2023-01-15T09:37:11;5.65;;;1.20;;
10761;SDS011;5433;50.862;4.320;2023-01-15T09:39:38;4.05;;;1.40;;
10761;SDS011;5433;50.862;4.320;2023-01-15T09:47:03;2.80;;;1.10;;
10761;SDS011;5433;50.862;4.320;2023-01-15T09:49:39;4.63;;;0.82;;
10761;SDS011;5433;50.862;4.320;2023-01-15T09:54:38;2.95;;;0.90;;
10761;SDS011;5433;50.862;4.320;2023-01-15T09:57:11;3.30;;;0.70;;
10761;SDS011;5433;50.862;4.320;2023-01-15T09:59:38;2.97;;;0.88;;
10761;SDS011;5433;50.862;4.320;2023-01-15T10:02:26;3.90;;;0.90;;
10761;SDS011;5433;50.862;4.320;2023-01-15T10:04:53;3.40;;;0.90;;
10761;SDS011;5433;50.862;4.320;2023-01-15T10:09:55;3.33;;;0.90;;
10761;SDS011;5433;50.862;4.320;2023-01-15T10:12:26;2.17;;;0.90;;
10761;SDS011;5433;50.862;4.320;2023-01-15T10:17:46;3.25;;;1.02;;
10761;SDS011;5433;50.862;4.320;2023-01-15T10:20:17;2.35;;;0.90;;
10761;SDS011;5433;50.862;4.320;2023-01-15T10:23:06;3.90;;;0.93;;
10761;SDS011;5433;50.862;4.320;2023-01-15T10:25:35;2.55;;;0.82;;
10761;SDS011;5433;50.862;4.320;2023-01-15T10:28:17;2.88;;;0.88;;
10761;SDS011;5433;50.862;4.320;2023-01-15T10:30:49;4.25;;;0.80;;
10761;SDS011;5433;50.862;4.320;2023-01-15T10:38:25;4.55;;;1.05;;
10761;SDS011;5433;50.862;4.320;2023-01-15T10:46:24;3.35;;;0.90;;
10761;SDS011;5433;50.862;4.320;2023-01-15T10:49:01;4.38;;;1.27;;
10761;SDS011;5433;50.862;4.320;2023-01-15T10:51:29;1.75;;;0.70;;
10761;SDS011;5433;50.862;4.320;2023-01-15T10:54:03;3.33;;;1.00;;
10761;SDS011;5433;50.862;4.320;2023-01-15T10:56:32;3.03;;;0.88;;
10761;SDS011;5433;50.862;4.320;2023-01-15T10:59:04;2.20;;;1.00;;
10761;SDS011;5433;50.862;4.320;2023-01-15T11:01:35;2.47;;;0.95;;
10761;SDS011;5433;50.862;4.320;2023-01-15T11:04:01;4.50;;;1.30;;
10761;SDS011;5433;50.862;4.320;2023-01-15T11:06:28;4.70;;;1.10;;
10761;SDS011;5433;50.862;4.320;2023-01-15T11:08:56;3.72;;;1.10;;
10761;SDS011;5433;50.862;4.320;2023-01-15T11:11:30;4.70;;;1.17;;
10761;SDS011;5433;50.862;4.320;2023-01-15T11:14:15;3.47;;;1.00;;
10761;SDS011;5433;50.862;4.320;2023-01-15T11:17:00;3.90;;;1.10;;
10761;SDS011;5433;50.862;4.320;2023-01-15T11:19:36;5.40;;;1.85;;
10761;SDS011;5433;50.862;4.320;2023-01-15T11:22:07;2.28;;;1.08;;
10761;SDS011;5433;50.862;4.320;2023-01-15T11:24:37;5.70;;;1.13;;
10761;SDS011;5433;50.862;4.320;2023-01-15T11:27:12;6.28;;;1.25;;
10761;SDS011;5433;50.862;4.320;2023-01-15T11:29:39;4.30;;;1.17;;
10761;SDS011;5433;50.862;4.320;2023-01-15T11:32:16;3.55;;;0.90;;
10761;SDS011;5433;50.862;4.320;2023-01-15T11:34:51;5.13;;;1.10;;
10761;SDS011;5433;50.862;4.320;2023-01-15T11:37:17;3.08;;;1.17;;
10761;SDS011;5433;50.862;4.320;2023-01-15T11:39:50;4.38;;;1.00;;
10761;SDS011;5433;50.862;4.320;2023-01-15T11:42:16;2.13;;;1.13;;
10761;SDS011;5433;50.862;4.320;2023-01-15T11:45:01;3.28;;;1.20;;
10761;SDS011;5433;50.862;4.320;2023-01-15T11:47:52;4.63;;;1.10;;
10761;SDS011;5433;50.862;4.320;2023-01-15T11:50:48;4.07;;;0.95;;
10761;SDS011;5433;50.862;4.320;2023-01-15T11:53:19;5.03;;;1.48;;
10761;SDS011;5433;50.862;4.320;2023-01-15T11:55:59;4.00;;;1.10;;
10761;SDS011;5433;50.862;4.320;2023-01-15T11:58:31;5.43;;;1.23;;
10761;SDS011;5433;50.862;4.320;2023-01-15T12:00:58;3.10;;;1.02;;
10761;SDS011;5433;50.862;4.320;2023-01-15T12:03:25;2.15;;;0.90;;
10761;SDS011;5433;50.862;4.320;2023-01-15T12:10:56;3.88;;;1.10;;
10761;SDS011;5433;50.862;4.320;2023-01-15T12:13:34;4.18;;;1.25;;
10761;SDS011;5433;50.862;4.320;2023-01-15T12:22:01;3.75;;;0.90;;
10761;SDS011;5433;50.862;4.320;2023-01-15T12:24:36;3.47;;;1.20;;
10761;SDS011;5433;50.862;4.320;2023-01-15T12:27:15;3.75;;;1.13;;
10761;SDS011;5433;50.862;4.320;2023-01-15T12:32:23;3.40;;;1.33;;
10761;SDS011;5433;50.862;4.320;2023-01-15T12:35:01;1.73;;;0.63;;
10761;SDS011;5433;50.862;4.320;2023-01-15T12:37:40;2.70;;;1.20;;
10761;SDS011;5433;50.862;4.320;2023-01-15T12:46:14;4.80;;;1.33;;
10761;SDS011;5433;50.862;4.320;2023-01-15T12:51:20;3.55;;;1.00;;
10761;SDS011;5433;50.862;4.320;2023-01-15T12:54:14;4.72;;;1.10;;
10761;SDS011;5433;50.862;4.320;2023-01-15T12:56:49;2.53;;;0.90;;
10761;SDS011;5433;50.862;4.320;2023-01-15T12:59:32;3.47;;;1.00;;
10761;SDS011;5433;50.862;4.320;2023-01-15T13:02:37;4.28;;;1.00;;
10761;SDS011;5433;50.862;4.320;2023-01-15T13:13:29;2.80;;;0.95;;
10761;SDS011;5433;50.862;4.320;2023-01-15T13:19:00;3.85;;;0.80;;
10761;SDS011;5433;50.862;4.320;2023-01-15T13:21:31;6.22;;;1.08;;
10761;SDS011;5433;50.862;4.320;2023-01-15T13:29:43;2.42;;;0.85;;
10761;SDS011;5433;50.862;4.320;2023-01-15T13:39:46;1.58;;;0.75;;
10761;SDS011;5433;50.862;4.320;2023-01-15T13:42:15;3.08;;;0.98;;
10761;SDS011;5433;50.862;4.320;2023-01-15T13:45:07;2.90;;;0.88;;
10761;SDS011;5433;50.862;4.320;2023-01-15T13:47:44;3.83;;;0.90;;
10761;SDS011;5433;50.862;4.320;2023-01-15T13:50:17;2.33;;;0.80;;
10761;SDS011;5433;50.862;4.320;2023-01-15T13:52:44;2.53;;;1.00;;
10761;SDS011;5433;50.862;4.320;2023-01-15T13:55:15;2.08;;;1.00;;
10761;SDS011;5433;50.862;4.320;2023-01-15T13:57:44;2.90;;;0.90;;
10761;SDS011;5433;50.862;4.320;2023-01-15T14:02:58;2.15;;;0.77;;
10761;SDS011;5433;50.862;4.320;2023-01-15T14:05:29;3.42;;;0.73;;
10761;SDS011;5433;50.862;4.320;2023-01-15T14:07:55;2.38;;;0.90;;
10761;SDS011;5433;50.862;4.320;2023-01-15T14:10:31;2.72;;;0.85;;
10761;SDS011;5433;50.862;4.320;2023-01-15T14:13:08;3.85;;;1.10;;
10761;SDS011;5433;50.862;4.320;2023-01-15T14:18:24;3.60;;;0.88;;
10761;SDS011;5433;50.862;4.320;2023-01-15T14:20:54;4.18;;;1.05;;
10761;SDS011;5433;50.862;4.320;2023-01-15T14:28:35;3.25;;;1.90;;
10761;SDS011;5433;50.862;4.320;2023-01-15T14:31:21;5.03;;;1.33;;
10761;SDS011;5433;50.862;4.320;2023-01-15T14:36:27;3.83;;;1.20;;
10761;SDS011;5433;50.862;4.320;2023-01-15T14:38:54;4.43;;;1.10;;
10761;SDS011;5433;50.862;4.320;2023-01-15T14:41:26;2.75;;;0.93;;
10761;SDS011;5433;50.862;4.320;2023-01-15T14:43:53;2.20;;;0.90;;
10761;SDS011;5433;50.862;4.320;2023-01-15T14:46:27;3.10;;;1.08;;
10761;SDS011;5433;50.862;4.320;2023-01-15T14:48:53;3.10;;;0.90;;
10761;SDS011;5433;50.862;4.320;2023-01-15T14:51:24;2.65;;;0.93;;
10761;SDS011;5433;50.862;4.320;2023-01-15T14:56:27;3.67;;;1.20;;
10761;SDS011;5433;50.862;4.320;2023-01-15T15:01:49;4.28;;;1.10;;
10761;SDS011;5433;50.862;4.320;2023-01-15T15:06:56;2.50;;;0.80;;
10761;SDS011;5433;50.862;4.320;2023-01-15T15:11:52;1.73;;;0.90;;
10761;SDS011;5433;50.862;4.320;2023-01-15T15:14:37;2.28;;;0.77;;
10761;SDS011;5433;50.862;4.320;2023-01-15T15:17:04;2.85;;;1.10;;
10761;SDS011;5433;50.862;4.320;2023-01-15T15:19:39;4.95;;;1.02;;
10761;SDS011;5433;50.862;4.320;2023-01-15T15:22:07;2.83;;;0.63;;
10761;SDS011;5433;50.862;4.320;2023-01-15T15:24:35;1.45;;;0.70;;
10761;SDS011;5433;50.862;4.320;2023-01-15T15:27:17;2.53;;;0.90;;
10761;SDS011;5433;50.862;4.320;2023-01-15T15:29:44;1.70;;;0.88;;
10761;SDS011;5433;50.862;4.320;2023-01-15T15:32:11;3.72;;;0.98;;
10761;SDS011;5433;50.862;4.320;2023-01-15T15:34:39;2.53;;;1.15;;
10761;SDS011;5433;50.862;4.320;2023-01-15T15:37:17;2.88;;;1.00;;
10761;SDS011;5433;50.862;4.320;2023-01-15T15:42:22;2.15;;;0.90;;
10761;SDS011;5433;50.862;4.320;2023-01-15T15:45:27;4.72;;;1.00;;
10761;SDS011;5433;50.862;4.320;2023-01-15T15:48:19;2.63;;;0.93;;
10761;SDS011;5433;50.862;4.320;2023-01-15T15:51:05;2.58;;;1.08;;
10761;SDS011;5433;50.862;4.320;2023-01-15T15:53:47;3.33;;;1.25;;
10761;SDS011;5433;50.862;4.320;2023-01-15T15:56:13;3.30;;;1.10;;
10761;SDS011;5433;50.862;4.320;2023-01-15T15:58:39;3.67;;;1.35;;
10761;SDS011;5433;50.862;4.320;2023-01-15T16:01:08;2.35;;;1.08;;
10761;SDS011;5433;50.862;4.320;2023-01-15T16:03:35;4.35;;;1.15;;
10761;SDS011;5433;50.862;4.320;2023-01-15T16:09:01;3.05;;;1.00;;
10761;SDS011;5433;50.862;4.320;2023-01-15T16:11:29;3.17;;;1.17;;
10761;SDS011;5433;50.862;4.320;2023-01-15T16:13:57;1.85;;;1.20;;
10761;SDS011;5433;50.862;4.320;2023-01-15T16:16:24;2.28;;;0.85;;
10761;SDS011;5433;50.862;4.320;2023-01-15T16:18:58;3.08;;;1.10;;
10761;SDS011;5433;50.862;4.320;2023-01-15T16:21:26;3.72;;;1.05;;
10761;SDS011;5433;50.862;4.320;2023-01-15T16:23:56;2.95;;;1.15;;
10761;SDS011;5433;50.862;4.320;2023-01-15T16:26:23;4.80;;;1.20;;
10761;SDS011;5433;50.862;4.320;2023-01-15T16:28:56;3.20;;;1.15;;
10761;SDS011;5433;50.862;4.320;2023-01-15T16:31:23;2.67;;;1.15;;
10761;SDS011;5433;50.862;4.320;2023-01-15T16:33:52;3.65;;;1.38;;
10761;SDS011;5433;50.862;4.320;2023-01-15T16:36:19;3.72;;;1.23;;
10761;SDS011;5433;50.862;4.320;2023-01-15T16:38:46;2.78;;;1.10;;
10761;SDS011;5433;50.862;4.320;2023-01-15T16:41:58;3.88;;;1.20;;
10761;SDS011;5433;50.862;4.320;2023-01-15T16:44:00;3.28;;;1.30;;
10761;SDS011;5433;50.862;4.320;2023-01-15T16:46:27;3.72;;;1.75;;
10761;SDS011;5433;50.862;4.320;2023-01-15T16:51:39;1.95;;;1.30;;
10761;SDS011;5433;50.862;4.320;2023-01-15T16:54:08;3.67;;;1.30;;
10761;SDS011;5433;50.862;4.320;2023-01-15T16:56:53;1.50;;;0.80;;
10761;SDS011;5433;50.862;4.320;2023-01-15T17:00:04;2.63;;;0.98;;
10761;SDS011;5433;50.862;4.320;2023-01-15T17:02:13;2.67;;;0.90;;
10761;SDS011;5433;50.862;4.320;2023-01-15T17:04:40;2.30;;;0.90;;
10761;SDS011;5433;50.862;4.320;2023-01-15T17:09:33;2.38;;;1.00;;
10761;SDS011;5433;50.862;4.320;2023-01-15T17:12:05;2.85;;;1.00;;
10761;SDS011;5433;50.862;4.320;2023-01-15T17:14:32;1.30;;;1.00;;
10761;SDS011;5433;50.862;4.320;2023-01-15T17:19:43;1.77;;;1.10;;
10761;SDS011;5433;50.862;4.320;2023-01-15T17:22:10;2.03;;;1.20;;
10761;SDS011;5433;50.862;4.320;2023-01-15T17:24:45;3.15;;;1.30;;